createdAt,value
2018-04-11T00:01:40.809Z,15.12
2018-04-11T00:04:08.961Z,15.01
2018-04-11T00:06:37.112Z,15.18
2018-04-11T00:09:05.227Z,15.23
2018-04-11T00:11:33.387Z,15.23
2018-04-11T00:14:01.682Z,15.28
2018-04-11T00:16:29.828Z,15.18
2018-04-11T00:18:57.953Z,15.15
2018-04-11T00:21:26.096Z,14.88
2018-04-11T00:23:54.227Z,14.97
2018-04-11T00:26:22.388Z,15.26
2018-04-11T00:28:50.536Z,15.34
2018-04-11T00:31:18.680Z,15.24
2018-04-11T00:33:46.798Z,15.15
2018-04-11T00:36:14.947Z,15.14
2018-04-11T00:38:43.081Z,15.07
2018-04-11T00:41:11.232Z,15.02
2018-04-11T00:43:39.371Z,15.17
2018-04-11T00:46:07.521Z,15.15
2018-04-11T00:48:35.645Z,15.06
2018-04-11T00:51:03.802Z,15.23
2018-04-11T00:53:31.962Z,15.10
2018-04-11T00:56:00.107Z,15.19
2018-04-11T00:58:28.248Z,15.14
2018-04-11T01:00:56.386Z,15.17
2018-04-11T01:03:24.495Z,15.29
2018-04-11T01:05:52.642Z,15.27
2018-04-11T01:08:20.777Z,15.25
2018-04-11T01:10:48.915Z,15.21
2018-04-11T01:13:17.075Z,15.22
2018-04-11T01:15:45.233Z,15.17
2018-04-11T01:18:13.377Z,15.21
2018-04-11T01:20:41.516Z,15.21
2018-04-11T01:23:09.656Z,15.19
2018-04-11T01:25:37.819Z,15.20
2018-04-11T01:28:05.957Z,15.20
2018-04-11T01:30:34.092Z,15.19
2018-04-11T01:33:02.238Z,15.17
2018-04-11T01:35:30.365Z,15.10
2018-04-11T01:37:58.491Z,14.96
2018-04-11T01:40:26.653Z,15.05
2018-04-11T01:42:54.810Z,14.98
2018-04-11T01:45:22.948Z,14.98
2018-04-11T01:47:51.079Z,14.99
2018-04-11T01:50:19.251Z,14.94
2018-04-11T01:52:47.390Z,14.94
2018-04-11T01:55:15.525Z,15.03
2018-04-11T01:57:43.672Z,14.86
2018-04-11T02:00:11.803Z,14.85
2018-04-11T02:02:39.949Z,14.85
2018-04-11T02:05:08.106Z,15.02
2018-04-11T02:07:36.223Z,15.11
2018-04-11T02:10:04.370Z,14.91
2018-04-11T02:12:32.486Z,14.59
2018-04-11T02:15:00.638Z,14.61
2018-04-11T02:17:28.782Z,14.68
2018-04-11T02:19:56.915Z,14.81
2018-04-11T02:22:25.037Z,14.93
2018-04-11T02:24:53.160Z,14.99
2018-04-11T02:27:21.284Z,15.02
2018-04-11T02:29:49.442Z,14.98
2018-04-11T02:32:17.809Z,14.92
2018-04-11T02:34:45.956Z,14.85
2018-04-11T02:37:14.083Z,14.98
2018-04-11T02:39:42.242Z,14.91
2018-04-11T02:42:10.376Z,14.92
2018-04-11T02:44:38.530Z,14.86
2018-04-11T02:47:06.671Z,14.82
2018-04-11T02:49:34.821Z,14.73
2018-04-11T02:52:02.970Z,14.70
2018-04-11T02:54:31.094Z,14.56
2018-04-11T02:56:59.431Z,14.54
2018-04-11T02:59:27.576Z,14.29
2018-04-11T03:01:55.699Z,14.23
2018-04-11T03:04:23.879Z,14.45
2018-04-11T03:06:52.023Z,14.67
2018-04-11T03:09:20.225Z,14.75
2018-04-11T03:11:48.324Z,14.52
2018-04-11T03:14:16.451Z,14.24
2018-04-11T03:16:44.602Z,13.99
2018-04-11T03:19:12.746Z,14.30
2018-04-11T03:21:40.915Z,14.26
2018-04-11T03:24:09.066Z,14.44
2018-04-11T03:26:37.187Z,14.31
2018-04-11T03:29:05.320Z,14.45
2018-04-11T03:31:33.447Z,14.45
2018-04-11T03:34:01.746Z,14.56
2018-04-11T03:36:29.883Z,14.50
2018-04-11T03:38:58.156Z,14.28
2018-04-11T03:41:26.305Z,14.52
2018-04-11T03:43:54.499Z,14.39
2018-04-11T03:46:22.667Z,14.50
2018-04-11T03:48:51.173Z,14.56
2018-04-11T03:51:19.306Z,14.44
2018-04-11T03:53:47.465Z,14.54
2018-04-11T03:56:15.620Z,14.52
2018-04-11T03:58:43.775Z,14.54
2018-04-11T04:01:11.910Z,14.61
2018-04-11T04:03:40.027Z,14.56
2018-04-11T04:06:08.169Z,14.56
2018-04-11T04:08:36.299Z,14.55
2018-04-11T04:11:04.443Z,14.66
2018-04-11T04:13:44.312Z,14.66
2018-04-11T04:16:24.235Z,14.71
2018-04-11T04:19:04.128Z,14.69
2018-04-11T04:21:33.423Z,14.62
2018-04-11T04:24:01.569Z,14.49
2018-04-11T04:26:29.718Z,14.46
2018-04-11T04:28:57.871Z,14.43
2018-04-11T04:31:26.001Z,14.61
2018-04-11T04:33:54.143Z,14.68
2018-04-11T04:36:22.288Z,14.69
2018-04-11T04:38:50.400Z,14.58
2018-04-11T04:41:18.533Z,14.42
2018-04-11T04:43:46.675Z,14.50
2018-04-11T04:46:14.825Z,14.76
2018-04-11T04:48:42.961Z,14.95
2018-04-11T04:51:11.136Z,14.73
2018-04-11T04:53:39.260Z,14.34
2018-04-11T04:56:07.384Z,14.09
2018-04-11T04:58:35.521Z,14.35
2018-04-11T05:01:03.661Z,14.41
2018-04-11T05:03:31.785Z,14.45
2018-04-11T05:05:59.953Z,14.53
2018-04-11T05:08:28.163Z,14.59
2018-04-11T05:10:56.305Z,14.62
2018-04-11T05:13:24.458Z,14.66
2018-04-11T05:15:52.601Z,14.68
2018-04-11T05:18:20.742Z,14.65
2018-04-11T05:20:48.869Z,14.68
2018-04-11T05:23:17.030Z,14.55
2018-04-11T05:25:45.142Z,14.46
2018-04-11T05:28:15.216Z,14.46
2018-04-11T05:30:43.386Z,14.54
2018-04-11T05:33:11.491Z,14.67
2018-04-11T05:35:39.640Z,14.69
2018-04-11T05:38:07.793Z,14.66
2018-04-11T05:40:35.910Z,14.71
2018-04-11T05:43:04.077Z,14.69
2018-04-11T05:45:32.219Z,14.66
2018-04-11T05:48:00.418Z,14.68
2018-04-11T05:50:28.526Z,14.82
2018-04-11T05:52:56.660Z,14.81
2018-04-11T05:55:24.866Z,14.80
2018-04-11T05:57:52.994Z,14.76
2018-04-11T06:00:21.118Z,14.64
2018-04-11T06:02:49.258Z,14.59
2018-04-11T06:05:17.380Z,14.58
2018-04-11T06:07:45.528Z,14.60
2018-04-11T06:10:13.650Z,14.59
2018-04-11T06:12:41.820Z,14.68
2018-04-11T06:15:09.954Z,14.67
2018-04-11T06:17:38.071Z,14.71
2018-04-11T06:20:06.227Z,14.62
2018-04-11T06:22:34.371Z,14.60
2018-04-11T06:25:02.510Z,14.70
2018-04-11T06:27:30.659Z,14.72
2018-04-11T06:29:58.846Z,14.54
2018-04-11T06:32:26.997Z,14.62
2018-04-11T06:34:55.143Z,14.63
2018-04-11T06:37:23.275Z,14.51
2018-04-11T06:39:51.416Z,14.38
2018-04-11T06:42:19.543Z,14.48
2018-04-11T06:44:47.707Z,14.58
2018-04-11T06:47:15.845Z,14.65
2018-04-11T06:49:43.999Z,14.64
2018-04-11T06:52:12.151Z,14.64
2018-04-11T06:54:40.273Z,14.65
2018-04-11T06:57:08.425Z,14.53
2018-04-11T06:59:36.558Z,14.50
2018-04-11T07:02:04.701Z,14.55
2018-04-11T07:04:32.898Z,14.56
2018-04-11T07:07:01.060Z,14.54
2018-04-11T07:09:29.192Z,14.47
2018-04-11T07:11:57.326Z,14.61
2018-04-11T07:14:25.465Z,14.53
2018-04-11T07:16:53.589Z,14.63
2018-04-11T07:19:21.707Z,14.59
2018-04-11T07:21:52.793Z,14.63
2018-04-11T07:24:23.990Z,14.81
2018-04-11T07:26:52.125Z,14.85
2018-04-11T07:29:20.275Z,14.67
2018-04-11T07:31:48.411Z,14.61
2018-04-11T07:34:16.547Z,14.73
2018-04-11T07:36:44.712Z,14.72
2018-04-11T07:39:12.835Z,14.70
2018-04-11T07:41:40.989Z,14.92
2018-04-11T07:44:09.125Z,14.83
2018-04-11T07:46:37.259Z,15.08
2018-04-11T07:49:05.460Z,15.32
2018-04-11T07:51:33.609Z,15.39
2018-04-11T07:54:02.140Z,15.13
2018-04-11T07:56:30.284Z,14.86
2018-04-11T07:58:58.452Z,14.72
2018-04-11T08:01:26.581Z,14.54
2018-04-11T08:03:54.731Z,14.63
2018-04-11T08:06:22.883Z,14.88
2018-04-11T08:08:50.991Z,15.00
2018-04-11T08:11:19.131Z,15.12
2018-04-11T08:13:47.299Z,15.21
2018-04-11T08:16:15.457Z,15.27
2018-04-11T08:18:43.561Z,15.23
2018-04-11T08:21:11.691Z,15.29
2018-04-11T08:23:39.310Z,15.40
2018-04-11T08:26:07.588Z,15.48
2018-04-11T08:28:35.755Z,15.28
2018-04-11T08:31:03.891Z,15.41
2018-04-11T08:33:32.008Z,15.16
2018-04-11T08:36:00.144Z,15.34
2018-04-11T08:38:28.281Z,15.47
2018-04-11T08:40:56.423Z,15.52
2018-04-11T08:43:24.595Z,15.55
2018-04-11T08:45:52.718Z,15.58
2018-04-11T08:48:20.846Z,15.59
2018-04-11T08:50:48.973Z,15.55
2018-04-11T08:53:17.095Z,15.61
2018-04-11T08:55:45.264Z,15.43
2018-04-11T08:58:13.395Z,15.33
2018-04-11T09:00:41.532Z,15.48
2018-04-11T09:03:09.675Z,15.42
2018-04-11T09:05:37.813Z,15.39
2018-04-11T09:08:05.985Z,15.02
2018-04-11T09:10:34.117Z,15.12
2018-04-11T09:13:02.244Z,15.15
2018-04-11T09:15:30.400Z,15.20
2018-04-11T09:17:58.559Z,15.26
2018-04-11T09:20:26.724Z,15.22
2018-04-11T09:22:54.847Z,15.18
2018-04-11T09:25:23.004Z,15.00
2018-04-11T09:27:51.165Z,15.04
2018-04-11T09:30:19.279Z,15.05
2018-04-11T09:32:47.441Z,15.19
2018-04-11T09:35:15.577Z,14.98
2018-04-11T09:37:43.720Z,15.26
2018-04-11T09:40:11.866Z,15.54
2018-04-11T09:42:40.008Z,15.64
2018-04-11T09:45:08.161Z,15.72
2018-04-11T09:47:36.310Z,15.76
2018-04-11T09:50:04.459Z,15.79
2018-04-11T09:52:32.608Z,15.66
2018-04-11T09:55:00.718Z,15.35
2018-04-11T09:57:28.988Z,15.66
2018-04-11T09:59:57.131Z,15.62
2018-04-11T10:02:25.271Z,15.50
2018-04-11T10:04:53.396Z,15.41
2018-04-11T10:07:21.541Z,15.63
2018-04-11T10:09:49.663Z,15.71
2018-04-11T10:12:17.795Z,15.70
2018-04-11T10:14:45.956Z,15.79
2018-04-11T10:17:14.101Z,15.88
2018-04-11T10:19:42.254Z,15.71
2018-04-11T10:22:10.382Z,15.67
2018-04-11T10:24:38.531Z,15.66
2018-04-11T10:27:06.665Z,15.63
2018-04-11T10:29:34.848Z,15.34
2018-04-11T10:32:02.988Z,15.33
2018-04-11T10:34:31.139Z,15.44
2018-04-11T10:36:59.269Z,15.44
2018-04-11T10:39:28.299Z,15.36
2018-04-11T10:41:56.500Z,15.59
2018-04-11T10:44:24.626Z,15.54
2018-04-11T10:46:52.845Z,15.74
2018-04-11T10:49:20.960Z,15.82
2018-04-11T10:51:49.434Z,15.84
2018-04-11T10:54:17.582Z,15.85
2018-04-11T10:56:45.714Z,15.87
2018-04-11T10:59:13.872Z,15.66
2018-04-11T11:01:41.995Z,15.66
2018-04-11T11:04:10.149Z,15.56
2018-04-11T11:06:38.291Z,15.41
2018-04-11T11:09:06.416Z,15.32
2018-04-11T11:11:34.814Z,15.32
2018-04-11T11:14:02.949Z,15.48
2018-04-11T11:16:36.093Z,15.56
2018-04-11T11:19:04.226Z,15.60
2018-04-11T11:21:32.356Z,15.46
2018-04-11T11:24:00.482Z,15.56
2018-04-11T11:26:28.592Z,15.52
2018-04-11T11:28:56.754Z,15.53
2018-04-11T11:31:24.869Z,15.54
2018-04-11T11:33:52.987Z,15.47
2018-04-11T11:36:21.156Z,15.59
2018-04-11T11:38:49.278Z,15.59
2018-04-11T11:41:17.433Z,15.39
2018-04-11T11:43:45.558Z,15.43
2018-04-11T11:46:13.697Z,15.51
2018-04-11T11:48:41.841Z,15.35
2018-04-11T11:51:09.981Z,15.33
2018-04-11T11:53:38.150Z,15.20
2018-04-11T11:56:06.287Z,15.08
2018-04-11T11:58:34.428Z,15.21
2018-04-11T12:01:02.618Z,15.32
2018-04-11T12:03:30.756Z,15.17
2018-04-11T12:05:58.884Z,15.20
2018-04-11T12:08:27.009Z,15.26
2018-04-11T12:10:55.157Z,15.36
2018-04-11T12:13:23.291Z,15.19
2018-04-11T12:15:51.447Z,15.13
2018-04-11T12:18:19.609Z,15.32
2018-04-11T12:20:47.749Z,15.24
2018-04-11T12:23:15.875Z,15.19
2018-04-11T12:25:44.143Z,15.63
2018-04-11T12:28:12.265Z,15.37
2018-04-11T12:30:40.409Z,15.23
2018-04-11T12:33:08.535Z,15.11
2018-04-11T12:35:36.671Z,15.22
2018-04-11T12:38:04.810Z,15.15
2018-04-11T12:40:32.923Z,15.17
2018-04-11T12:43:01.077Z,15.16
2018-04-11T12:45:29.201Z,15.24
2018-04-11T12:47:57.329Z,15.25
2018-04-11T12:50:25.493Z,15.08
2018-04-11T12:52:53.611Z,15.01
2018-04-11T12:55:21.783Z,14.86
2018-04-11T12:57:49.937Z,15.10
2018-04-11T13:00:18.103Z,15.08
2018-04-11T13:02:46.226Z,15.07
2018-04-11T13:05:14.365Z,14.88
2018-04-11T13:07:42.517Z,14.83
2018-04-11T13:10:10.668Z,14.89
2018-04-11T13:12:38.808Z,14.81
2018-04-11T13:15:06.996Z,14.62
2018-04-11T13:17:35.093Z,14.69
2018-04-11T13:20:03.246Z,14.70
2018-04-11T13:22:31.374Z,14.73
2018-04-11T13:24:59.509Z,14.78
2018-04-11T13:27:27.649Z,14.77
2018-04-11T13:29:55.777Z,14.58
2018-04-11T13:32:23.932Z,14.78
2018-04-11T13:34:52.084Z,14.97
2018-04-11T13:37:20.216Z,14.52
2018-04-11T13:39:48.395Z,14.55
2018-04-11T13:42:16.508Z,14.98
2018-04-11T13:44:44.677Z,15.26
2018-04-11T13:47:12.792Z,15.38
2018-04-11T13:49:40.964Z,15.33
2018-04-11T13:52:09.078Z,14.99
2018-04-11T13:54:37.225Z,15.25
2018-04-11T13:57:05.406Z,15.36
2018-04-11T13:59:33.566Z,15.33
2018-04-11T14:02:01.687Z,15.60
2018-04-11T14:04:29.835Z,15.49
2018-04-11T14:06:57.993Z,15.66
2018-04-11T14:09:26.103Z,15.73
2018-04-11T14:11:54.234Z,15.75
2018-04-11T14:14:22.395Z,15.91
2018-04-11T14:16:50.515Z,15.95
2018-04-11T14:19:18.658Z,15.78
2018-04-11T14:21:46.806Z,15.98
2018-04-11T14:24:14.937Z,16.21
2018-04-11T14:26:43.083Z,16.10
2018-04-11T14:29:11.269Z,15.93
2018-04-11T14:31:39.421Z,16.12
2018-04-11T14:34:07.585Z,16.24
2018-04-11T14:36:35.754Z,15.97
2018-04-11T14:39:03.915Z,15.83
2018-04-11T14:41:32.095Z,15.91
2018-04-11T14:44:00.225Z,16.06
2018-04-11T14:46:28.393Z,16.04
2018-04-11T14:48:56.511Z,16.16
2018-04-11T14:51:24.672Z,16.14
2018-04-11T14:53:52.812Z,16.12
2018-04-11T14:56:20.943Z,15.84
2018-04-11T14:58:49.104Z,15.90
2018-04-11T15:01:17.221Z,15.80
2018-04-11T15:03:45.350Z,15.87
2018-04-11T15:06:13.674Z,16.06
2018-04-11T15:08:41.780Z,16.13
2018-04-11T15:11:09.924Z,16.15
2018-04-11T15:13:38.092Z,16.16
2018-04-11T15:16:06.201Z,16.18
2018-04-11T15:18:34.330Z,15.92
2018-04-11T15:21:02.490Z,15.75
2018-04-11T15:23:30.629Z,15.86
2018-04-11T15:25:58.747Z,15.96
2018-04-11T15:28:26.918Z,15.89
2018-04-11T15:30:55.057Z,15.72
2018-04-11T15:33:23.181Z,15.65
2018-04-11T15:35:51.354Z,16.08
2018-04-11T15:38:19.486Z,16.10
2018-04-11T15:40:47.622Z,16.09
2018-04-11T15:43:15.791Z,16.13
2018-04-11T15:45:43.933Z,16.11
2018-04-11T15:48:12.158Z,16.04
2018-04-11T15:50:40.329Z,15.91
2018-04-11T15:53:08.449Z,16.15
2018-04-11T15:55:36.585Z,16.14
2018-04-11T15:58:04.824Z,16.21
2018-04-11T16:00:32.948Z,16.11
2018-04-11T16:03:01.086Z,15.90
2018-04-11T16:05:29.232Z,15.79
2018-04-11T16:07:57.384Z,16.12
2018-04-11T16:10:25.513Z,16.12
2018-04-11T16:12:53.680Z,16.17
2018-04-11T16:15:21.815Z,16.26
2018-04-11T16:17:49.978Z,16.36
2018-04-11T16:20:18.138Z,16.24
2018-04-11T16:22:46.275Z,16.09
2018-04-11T16:25:14.419Z,16.25
2018-04-11T16:27:42.555Z,16.05
2018-04-11T16:30:10.681Z,16.19
2018-04-11T16:32:38.828Z,16.34
2018-04-11T16:35:06.981Z,16.22
2018-04-11T16:37:35.114Z,16.18
2018-04-11T16:40:03.275Z,16.15
2018-04-11T16:42:31.424Z,16.09
2018-04-11T16:44:59.541Z,16.02
2018-04-11T16:47:27.728Z,16.37
2018-04-11T16:49:55.855Z,16.51
2018-04-11T16:52:24.026Z,16.29
2018-04-11T16:54:52.163Z,16.09
2018-04-11T16:57:20.312Z,16.19
2018-04-11T16:59:48.432Z,15.85
2018-04-11T17:02:16.590Z,15.83
2018-04-11T17:04:44.727Z,15.97
2018-04-11T17:07:12.850Z,16.08
2018-04-11T17:09:41.030Z,16.31
2018-04-11T17:12:09.125Z,15.95
2018-04-11T17:14:42.903Z,16.17
2018-04-11T17:17:11.042Z,16.19
2018-04-11T17:19:39.198Z,16.30
2018-04-11T17:22:19.150Z,16.35
2018-04-11T17:24:59.149Z,16.35
2018-04-11T17:30:45.150Z,16.24
2018-04-11T17:33:13.311Z,16.36
2018-04-11T17:35:45.160Z,16.36
2018-04-11T17:38:13.301Z,16.33
2018-04-11T17:40:41.454Z,16.23
2018-04-11T17:43:09.604Z,16.34
2018-04-11T17:45:37.735Z,16.29
2018-04-11T17:48:09.570Z,16.31
2018-04-11T17:50:37.703Z,16.30
2018-04-11T17:53:05.873Z,16.22
2018-04-11T17:55:34.022Z,16.17
2018-04-11T17:58:02.210Z,16.16
2018-04-11T18:00:30.490Z,16.11
2018-04-11T18:02:58.648Z,16.09
2018-04-11T18:05:26.773Z,15.98
2018-04-11T18:07:54.948Z,15.99
2018-04-11T18:10:23.097Z,15.95
2018-04-11T18:12:51.269Z,15.86
2018-04-11T18:15:19.392Z,15.79
2018-04-11T18:17:47.542Z,15.76
2018-04-11T18:20:15.671Z,15.74
2018-04-11T18:22:47.604Z,15.71
2018-04-11T18:25:15.754Z,15.61
2018-04-11T18:27:43.906Z,15.57
2018-04-11T18:30:12.049Z,15.47
2018-04-11T18:32:40.171Z,15.39
2018-04-11T18:35:08.461Z,15.37
2018-04-11T18:37:36.609Z,15.34
2018-04-11T18:40:04.731Z,15.34
2018-04-11T18:42:32.855Z,15.32
2018-04-11T18:45:00.978Z,15.27
2018-04-11T18:47:29.144Z,15.25
2018-04-11T18:49:57.290Z,15.18
2018-04-11T18:52:25.414Z,15.12
2018-04-11T18:54:53.552Z,15.05
2018-04-11T18:57:21.686Z,15.05
2018-04-11T18:59:49.824Z,15.03
2018-04-11T19:02:18.016Z,14.95
2018-04-11T19:04:46.144Z,14.90
2018-04-11T19:07:14.265Z,14.89
2018-04-11T19:09:42.397Z,14.85
2018-04-11T19:12:10.538Z,14.80
2018-04-11T19:14:38.768Z,14.73
2018-04-11T19:17:10.335Z,14.70
2018-04-11T19:19:38.466Z,14.64
2018-04-11T19:22:06.601Z,14.61
2018-04-11T19:24:34.755Z,14.58
2018-04-11T19:27:02.963Z,14.55
2018-04-11T19:29:31.094Z,14.52
2018-04-11T19:31:59.273Z,14.54
2018-04-11T19:34:27.456Z,14.51
2018-04-11T19:36:58.932Z,14.46
2018-04-11T19:39:27.069Z,14.45
2018-04-11T19:41:55.199Z,14.39
2018-04-11T19:44:25.810Z,14.37
2018-04-11T19:46:53.873Z,14.34
2018-04-11T19:49:22.033Z,14.35
2018-04-11T19:51:50.146Z,14.31
2018-04-11T19:54:18.269Z,14.21
2018-04-11T19:56:46.403Z,14.21
2018-04-11T19:59:14.534Z,14.18
2018-04-11T20:01:42.662Z,14.16
2018-04-11T20:04:10.967Z,14.07
2018-04-11T20:06:39.188Z,14.05
2018-04-11T20:09:07.673Z,14.11
2018-04-11T20:11:36.087Z,14.10
2018-04-11T20:14:04.236Z,14.01
2018-04-11T20:16:32.358Z,14.03
2018-04-11T20:19:00.507Z,13.95
2018-04-11T20:21:28.641Z,13.89
2018-04-11T20:23:56.800Z,13.92
2018-04-11T20:26:24.915Z,13.91
2018-04-11T20:28:53.050Z,13.85
2018-04-11T20:31:21.193Z,13.77
2018-04-11T20:33:49.335Z,13.70
2018-04-11T20:36:17.462Z,13.62
2018-04-11T20:38:45.593Z,13.67
2018-04-11T20:41:13.727Z,13.64
2018-04-11T20:43:41.855Z,13.62
2018-04-11T20:46:10.021Z,13.64
2018-04-11T20:48:38.137Z,13.66
2018-04-11T20:51:06.334Z,13.62
2018-04-11T20:53:34.456Z,13.58
2018-04-11T20:56:02.593Z,13.64
2018-04-11T20:58:30.727Z,13.68
2018-04-11T21:00:58.849Z,13.74
2018-04-11T21:03:30.597Z,13.70
2018-04-11T21:05:58.733Z,13.74
2018-04-11T21:08:26.870Z,13.75
2018-04-11T21:10:54.990Z,13.76
2018-04-11T21:13:23.131Z,13.71
2018-04-11T21:15:51.240Z,13.68
2018-04-11T21:18:19.404Z,13.68
2018-04-11T21:20:47.537Z,13.64
2018-04-11T21:23:15.693Z,13.66
2018-04-11T21:25:43.881Z,13.68
2018-04-11T21:28:11.982Z,13.71
2018-04-11T21:30:40.158Z,13.68
2018-04-11T21:33:08.439Z,13.68
2018-04-11T21:35:36.565Z,13.69
2018-04-11T21:38:04.842Z,13.69
2018-04-11T21:40:32.985Z,13.71
2018-04-11T21:43:01.099Z,13.74
2018-04-11T21:45:29.228Z,13.73
2018-04-11T21:47:57.349Z,13.73
2018-04-11T21:50:25.504Z,13.69
2018-04-11T21:52:53.635Z,13.64
2018-04-11T21:55:21.782Z,13.63
2018-04-11T21:57:49.904Z,13.57
2018-04-11T22:00:18.035Z,13.58
2018-04-11T22:02:46.184Z,13.55
2018-04-11T22:05:14.304Z,13.49
2018-04-11T22:07:42.408Z,13.47
2018-04-11T22:10:10.541Z,13.48
2018-04-11T22:12:38.671Z,13.50
2018-04-11T22:15:06.802Z,13.41
2018-04-11T22:17:34.905Z,13.42
2018-04-11T22:20:03.024Z,13.43
2018-04-11T22:22:31.169Z,13.43
2018-04-11T22:24:59.313Z,13.39
2018-04-11T22:27:27.426Z,13.37
2018-04-11T22:29:55.647Z,13.29
2018-04-11T22:32:23.764Z,13.25
2018-04-11T22:34:51.909Z,13.26
2018-04-11T22:37:20.019Z,13.22
2018-04-11T22:39:48.185Z,13.14
2018-04-11T22:42:16.327Z,13.19
2018-04-11T22:44:44.772Z,13.23
2018-04-11T22:47:12.912Z,13.25
2018-04-11T22:49:41.055Z,13.20
2018-04-11T22:52:09.193Z,13.17
2018-04-11T22:54:37.313Z,13.22
2018-04-11T22:57:05.464Z,13.15
2018-04-11T22:59:33.615Z,13.23
2018-04-11T23:02:01.771Z,13.23
2018-04-11T23:04:29.897Z,13.22
2018-04-11T23:06:58.024Z,13.11
2018-04-11T23:09:26.193Z,13.17
2018-04-11T23:11:54.321Z,13.21
2018-04-11T23:14:22.464Z,13.28
2018-04-11T23:16:50.636Z,13.30
2018-04-11T23:19:18.788Z,13.15
2018-04-11T23:21:46.943Z,13.19
2018-04-11T23:24:15.112Z,13.25
2018-04-11T23:26:43.259Z,13.18
2018-04-11T23:29:11.420Z,13.23
2018-04-11T23:31:39.560Z,13.31
2018-04-11T23:34:07.704Z,13.31
2018-04-11T23:36:35.870Z,13.18
2018-04-11T23:39:04.016Z,13.32
2018-04-11T23:41:32.191Z,13.31
2018-04-11T23:44:00.325Z,13.29
2018-04-11T23:46:28.459Z,13.33
2018-04-11T23:48:56.619Z,13.35
2018-04-11T23:51:24.767Z,13.31
2018-04-11T23:53:52.927Z,13.36
2018-04-11T23:56:21.068Z,13.41
2018-04-11T23:58:49.216Z,13.29
